Time;durP1;ratioP1;P1;durP2;ratioP2;P2;SDS_P1;SDS_P2;PMS_P1;PMS_P2;Temp;Humidity;BMP_temperature;BMP_pressure;BME280_temperature;BME280_humidity;BME280_pressure;Samples;Min_cycle;Max_cycle;Signal;HPM_P1;HPM_P2
2022/04/11 00:00:04;;;;;;;3.30;2.70;;;22.70;51.70;;;;;;6247242;22;20433;-85
2022/04/11 00:02:31;;;;;;;2.93;2.63;;;22.70;51.80;;;;;;6246832;23;21274;-78
2022/04/11 00:04:59;;;;;;;3.60;2.60;;;22.70;51.70;;;;;;6247096;23;20397;-78
2022/04/11 00:07:26;;;;;;;3.50;3.20;;;22.70;51.80;;;;;;6246752;23;20445;-86
2022/04/11 00:09:53;;;;;;;3.57;3.23;;;22.70;51.80;;;;;;6247372;23;20406;-85
2022/04/11 00:12:19;;;;;;;3.93;2.60;;;22.70;51.80;;;;;;6247029;23;20919;-78
2022/04/11 00:14:46;;;;;;;2.70;2.50;;;22.70;51.70;;;;;;6247222;23;20405;-78
2022/04/11 00:17:13;;;;;;;2.90;2.70;;;22.70;51.80;;;;;;6246634;23;20425;-86
2022/04/11 00:19:40;;;;;;;3.63;3.20;;;22.60;51.70;;;;;;6247138;23;20382;-78
2022/04/11 00:22:08;;;;;;;2.43;2.23;;;22.70;51.70;;;;;;6246862;23;20394;-78
2022/04/11 00:24:34;;;;;;;3.10;2.80;;;22.70;51.80;;;;;;6247234;23;20401;-78
2022/04/11 00:27:01;;;;;;;3.37;3.07;;;22.70;51.80;;;;;;6247141;23;20444;-78
2022/04/11 00:29:28;;;;;;;2.70;2.50;;;22.70;51.80;;;;;;6246994;22;20750;-78
2022/04/11 00:31:55;;;;;;;3.43;3.20;;;22.60;51.70;;;;;;6246631;23;20896;-78
2022/04/11 00:34:21;;;;;;;3.00;2.47;;;22.70;51.70;;;;;;6247094;23;20398;-77
2022/04/11 00:36:48;;;;;;;2.90;2.60;;;22.60;51.70;;;;;;6246827;23;20402;-78
2022/04/11 00:39:16;;;;;;;2.63;2.43;;;22.60;51.50;;;;;;6246919;23;20397;-77
2022/04/11 00:41:43;;;;;;;3.27;2.97;;;22.60;51.70;;;;;;6246723;23;20410;-78
2022/04/11 00:44:10;;;;;;;2.60;2.40;;;22.60;51.70;;;;;;6246926;23;20397;-78
2022/04/11 00:46:36;;;;;;;3.40;3.10;;;22.60;51.60;;;;;;6247022;23;20864;-86
2022/04/11 00:49:03;;;;;;;3.00;2.70;;;22.60;51.80;;;;;;6246939;23;20412;-77
2022/04/11 00:51:30;;;;;;;2.63;2.43;;;22.60;51.70;;;;;;6246751;23;20412;-77
2022/04/11 00:54:00;;;;;;;3.33;3.03;;;22.60;51.70;;;;;;6246999;23;20401;-78
2022/04/11 00:56:29;;;;;;;3.03;2.73;;;22.60;51.60;;;;;;6246841;23;20891;-78
2022/04/11 00:58:58;;;;;;;3.13;2.83;;;22.60;51.70;;;;;;6246423;22;20425;-79
2022/04/11 01:01:25;;;;;;;2.90;2.70;;;22.60;51.70;;;;;;6246774;23;20401;-78
2022/04/11 01:03:52;;;;;;;3.33;3.03;;;22.60;51.70;;;;;;6246807;23;20413;-84
2022/04/11 01:06:19;;;;;;;3.10;2.57;;;22.60;51.80;;;;;;6246317;23;20402;-83
2022/04/11 01:08:46;;;;;;;2.17;2.00;;;22.60;51.80;;;;;;6246616;23;20448;-78
2022/04/11 01:11:13;;;;;;;4.23;2.97;;;22.60;51.60;;;;;;6246785;23;20402;-78
2022/04/11 01:13:42;;;;;;;3.10;2.50;;;22.60;51.80;;;;;;6246904;23;20409;-84
2022/04/11 01:16:09;;;;;;;2.60;2.40;;;22.60;51.70;;;;;;6246133;23;20428;-78
2022/04/11 01:18:37;;;;;;;2.50;2.30;;;22.50;51.70;;;;;;6246606;23;20397;-78
2022/04/11 01:21:05;;;;;;;2.63;2.40;;;22.50;51.70;;;;;;6246576;23;20394;-78
2022/04/11 01:23:33;;;;;;;3.10;2.90;;;22.50;51.60;;;;;;6246602;23;20721;-78
2022/04/11 01:26:00;;;;;;;2.60;2.40;;;22.60;51.70;;;;;;6246705;23;20409;-77
2022/04/11 01:28:27;;;;;;;2.43;2.23;;;22.50;51.60;;;;;;6246402;22;20455;-78
2022/04/11 01:30:55;;;;;;;3.10;2.67;;;22.50;51.60;;;;;;6246585;23;20405;-78
2022/04/11 01:33:24;;;;;;;2.90;2.70;;;22.50;51.60;;;;;;6246634;23;20413;-78
2022/04/11 01:35:51;;;;;;;3.30;3.03;;;22.50;51.60;;;;;;6246482;23;20413;-78
2022/04/11 01:38:18;;;;;;;2.27;2.13;;;22.50;51.60;;;;;;6246190;23;20884;-83
2022/04/11 01:40:50;;;;;;;3.53;2.80;;;22.50;51.70;;;;;;6246155;23;20892;-78
2022/04/11 01:43:17;;;;;;;2.63;2.43;;;22.60;51.70;;;;;;6245769;23;20903;-86
2022/04/11 01:45:44;;;;;;;2.40;2.20;;;22.50;51.60;;;;;;6246432;23;20402;-77
2022/04/11 01:48:11;;;;;;;2.90;2.70;;;22.50;51.60;;;;;;6245949;23;20441;-77
2022/04/11 01:50:38;;;;;;;2.70;2.50;;;22.50;51.70;;;;;;6245985;23;20401;-77
2022/04/11 01:53:07;;;;;;;2.73;2.50;;;22.40;51.60;;;;;;6246453;23;20427;-77
2022/04/11 01:55:34;;;;;;;2.50;2.30;;;22.40;51.70;;;;;;6245981;23;20414;-81
2022/04/11 01:58:02;;;;;;;1.90;1.77;;;22.40;51.60;;;;;;6246526;23;20408;-77
2022/04/11 02:00:29;;;;;;;2.67;2.47;;;22.40;51.60;;;;;;6246562;23;20401;-77
2022/04/11 02:02:55;;;;;;;2.43;2.23;;;22.40;51.60;;;;;;6246446;23;20402;-86
2022/04/11 02:05:22;;;;;;;2.63;2.43;;;22.40;51.50;;;;;;6246360;23;20413;-77
2022/04/11 02:07:49;;;;;;;3.20;2.40;;;22.40;51.70;;;;;;6246243;23;20444;-77
2022/04/11 02:10:16;;;;;;;1.90;1.80;;;22.50;51.70;;;;;;6246294;23;20409;-80
2022/04/11 02:12:43;;;;;;;2.77;2.57;;;22.60;51.80;;;;;;6246388;23;20420;-78
2022/04/11 02:15:12;;;;;;;2.03;1.90;;;22.40;51.60;;;;;;6246073;23;20479;-78
2022/04/11 02:17:39;;;;;;;2.10;1.90;;;22.40;51.60;;;;;;6246367;23;20390;-78
2022/04/11 02:20:07;;;;;;;2.10;2.00;;;22.40;51.70;;;;;;6246205;23;20408;-77
2022/04/11 02:22:47;;;;;;;2.97;2.43;;;22.40;51.60;;;;;;6246294;23;20402;-78
2022/04/11 02:25:14;;;;;;;2.63;2.43;;;22.40;51.70;;;;;;6245920;23;20864;-77
2022/04/11 02:27:41;;;;;;;2.27;2.13;;;22.30;51.60;;;;;;6246232;23;20951;-78
2022/04/11 02:30:11;;;;;;;3.03;2.83;;;22.40;51.70;;;;;;6246178;22;20436;-77
2022/04/11 02:32:38;;;;;;;2.97;2.77;;;22.40;51.60;;;;;;6246629;23;20695;-78
2022/04/11 02:35:06;;;;;;;2.73;2.53;;;22.40;51.70;;;;;;6246273;23;20890;-77
2022/04/11 02:37:34;;;;;;;2.13;1.93;;;22.30;51.60;;;;;;6246090;23;20413;-78
2022/04/11 02:40:01;;;;;;;2.60;2.40;;;22.30;51.60;;;;;;6245900;23;20956;-78
2022/04/11 02:42:29;;;;;;;2.33;2.10;;;22.40;51.50;;;;;;6246262;23;20409;-78
2022/04/11 02:44:56;;;;;;;2.13;2.00;;;22.40;51.60;;;;;;6246120;23;20406;-85
2022/04/11 02:47:24;;;;;;;2.43;2.23;;;22.40;51.60;;;;;;6245677;23;20404;-77
2022/04/11 02:49:51;;;;;;;2.73;2.50;;;22.40;51.60;;;;;;6246290;23;20413;-78
2022/04/11 02:52:18;;;;;;;2.60;2.40;;;22.40;51.60;;;;;;6245785;23;20408;-78
2022/04/11 02:54:45;;;;;;;2.60;2.33;;;22.30;51.60;;;;;;6247203;23;20467;-77
2022/04/11 02:57:12;;;;;;;1.60;1.50;;;22.30;51.50;;;;;;6247873;23;20402;-78
2022/04/11 02:59:39;;;;;;;1.97;1.87;;;22.30;51.50;;;;;;6247418;22;20425;-78
2022/04/11 03:02:06;;;;;;;2.30;2.10;;;22.30;51.50;;;;;;6247662;23;20892;-77
2022/04/11 03:04:34;;;;;;;2.00;1.90;;;22.30;51.60;;;;;;6247988;23;20401;-78
2022/04/11 03:07:01;;;;;;;2.20;2.00;;;22.50;51.60;;;;;;6248161;23;20756;-78
2022/04/11 03:09:27;;;;;;;2.07;1.83;;;22.30;51.40;;;;;;6247533;23;20974;-86
2022/04/11 03:11:54;;;;;;;2.40;2.30;;;22.30;51.50;;;;;;6247757;23;20406;-78
2022/04/11 03:14:21;;;;;;;2.37;2.17;;;22.30;51.60;;;;;;6247837;23;20406;-79
2022/04/11 03:16:48;;;;;;;1.97;1.73;;;22.30;51.60;;;;;;6247128;23;20951;-78
2022/04/11 03:19:14;;;;;;;1.90;1.80;;;22.30;51.40;;;;;;6247905;23;20412;-81
2022/04/11 03:21:43;;;;;;;2.13;1.67;;;22.30;51.40;;;;;;6247369;23;20433;-79
2022/04/11 03:24:09;;;;;;;2.17;1.93;;;22.30;51.40;;;;;;6247851;23;20401;-78
2022/04/11 03:26:36;;;;;;;2.33;2.13;;;22.30;51.30;;;;;;6247439;23;20899;-81
2022/04/11 03:29:03;;;;;;;2.00;1.80;;;22.30;51.40;;;;;;6247158;22;20449;-84
2022/04/11 03:31:30;;;;;;;1.70;1.60;;;22.20;51.30;;;;;;6247865;23;20411;-85
2022/04/11 03:33:57;;;;;;;2.30;2.20;;;22.30;51.40;;;;;;6247791;23;20401;-77
2022/04/11 03:36:25;;;;;;;1.83;1.73;;;22.30;51.40;;;;;;6247664;23;20471;-84
2022/04/11 03:38:53;;;;;;;2.00;1.90;;;22.30;51.40;;;;;;6247252;23;20938;-82
2022/04/11 03:41:20;;;;;;;2.03;1.80;;;22.30;51.40;;;;;;6247709;23;20405;-78
2022/04/11 03:43:46;;;;;;;1.73;1.63;;;22.30;51.50;;;;;;6247671;23;20401;-85
2022/04/11 03:46:13;;;;;;;1.80;1.70;;;22.30;51.50;;;;;;6247232;23;20401;-77
2022/04/11 03:48:40;;;;;;;2.00;1.90;;;22.30;51.50;;;;;;6247456;23;20444;-78
2022/04/11 03:51:08;;;;;;;1.87;1.77;;;22.30;51.40;;;;;;6247480;23;20409;-78
2022/04/11 03:53:35;;;;;;;2.13;1.90;;;22.30;51.50;;;;;;6247730;23;20727;-78
2022/04/11 03:56:04;;;;;;;2.00;1.87;;;22.40;51.50;;;;;;6247410;23;20407;-77
2022/04/11 03:58:31;;;;;;;2.30;1.93;;;22.20;51.20;;;;;;6246976;22;20932;-78
2022/04/11 04:00:59;;;;;;;2.60;1.90;;;22.20;51.30;;;;;;6247336;23;20405;-78
2022/04/11 04:03:26;;;;;;;1.70;1.60;;;22.20;51.40;;;;;;6247417;23;20484;-85
2022/04/11 04:05:53;;;;;;;2.27;2.07;;;22.30;51.40;;;;;;6246601;23;20402;-78
2022/04/11 04:08:20;;;;;;;1.90;1.80;;;22.20;51.40;;;;;;6247286;23;20433;-85
2022/04/11 04:10:47;;;;;;;1.97;1.83;;;22.20;51.30;;;;;;6247599;23;20412;-78
2022/04/11 04:13:16;;;;;;;1.90;1.80;;;22.20;51.30;;;;;;6247327;23;20441;-78
2022/04/11 04:15:43;;;;;;;1.47;1.37;;;22.20;51.30;;;;;;6246496;23;20491;-78
2022/04/11 04:18:11;;;;;;;2.17;1.97;;;22.20;51.20;;;;;;6246955;23;20402;-77
2022/04/11 04:20:38;;;;;;;2.47;1.97;;;22.20;51.30;;;;;;6247129;23;20410;-85
2022/04/11 04:23:05;;;;;;;1.67;1.57;;;22.20;51.20;;;;;;6246620;23;20398;-82
2022/04/11 04:25:33;;;;;;;1.50;1.40;;;22.20;51.30;;;;;;6246849;23;20734;-78
2022/04/11 04:28:00;;;;;;;1.63;1.53;;;22.20;51.20;;;;;;6245833;22;20441;-78
2022/04/11 04:30:29;;;;;;;1.90;1.70;;;22.20;51.30;;;;;;6246345;23;20401;-78
2022/04/11 04:32:56;;;;;;;3.70;1.90;;;22.20;51.20;;;;;;6245856;23;20402;-78
2022/04/11 04:35:23;;;;;;;1.50;1.40;;;22.20;51.20;;;;;;6246951;23;20903;-78
2022/04/11 04:37:50;;;;;;;1.80;1.70;;;22.20;51.20;;;;;;6246957;23;20402;-79
2022/04/11 04:40:17;;;;;;;1.87;1.77;;;22.20;51.20;;;;;;6246861;23;20405;-77
2022/04/11 04:42:43;;;;;;;1.83;1.73;;;22.20;51.30;;;;;;6246723;23;20415;-85
2022/04/11 04:45:12;;;;;;;2.10;2.00;;;22.20;51.20;;;;;;6246884;23;20402;-77
2022/04/11 04:47:40;;;;;;;1.60;1.50;;;22.20;51.30;;;;;;6246709;23;20445;-78
2022/04/11 04:50:09;;;;;;;1.50;1.40;;;22.20;51.20;;;;;;6246537;23;20447;-78
2022/04/11 04:52:37;;;;;;;1.60;1.50;;;22.20;51.30;;;;;;6246204;23;20424;-79
2022/04/11 04:55:04;;;;;;;2.37;2.07;;;22.10;51.20;;;;;;6245227;23;20406;-78
2022/04/11 04:57:31;;;;;;;1.50;1.40;;;22.20;51.30;;;;;;6245579;23;20409;-78
2022/04/11 04:59:58;;;;;;;1.60;1.50;;;22.20;51.20;;;;;;6245987;22;20452;-78
2022/04/11 05:02:25;;;;;;;1.43;1.33;;;22.10;51.20;;;;;;6246321;23;20699;-78
2022/04/11 05:04:53;;;;;;;1.57;1.47;;;22.10;51.20;;;;;;6246787;23;20732;-78
2022/04/11 05:07:19;;;;;;;1.43;1.33;;;22.10;51.10;;;;;;6246415;23;20406;-83
2022/04/11 05:09:46;;;;;;;1.87;1.67;;;22.10;51.00;;;;;;6246553;23;20441;-78
2022/04/11 05:12:13;;;;;;;1.67;1.50;;;22.10;51.10;;;;;;6246697;23;20413;-79
2022/04/11 05:14:40;;;;;;;1.53;1.43;;;22.10;51.10;;;;;;6246668;23;20405;-78
2022/04/11 05:17:06;;;;;;;1.70;1.60;;;22.10;51.20;;;;;;6245861;23;20514;-78
2022/04/11 05:19:33;;;;;;;1.67;1.57;;;22.10;51.10;;;;;;6246655;23;20398;-80
2022/04/11 05:22:01;;;;;;;1.73;1.30;;;22.20;51.30;;;;;;6246402;23;20401;-79
2022/04/11 05:24:28;;;;;;;1.37;1.27;;;22.10;51.20;;;;;;6246599;23;20410;-86
2022/04/11 05:26:55;;;;;;;1.30;1.20;;;22.10;51.10;;;;;;6246147;23;20402;-78
2022/04/11 05:29:21;;;;;;;1.60;1.50;;;22.20;51.20;;;;;;6245943;22;20459;-79
2022/04/11 05:31:48;;;;;;;2.07;1.87;;;22.10;51.20;;;;;;6245291;23;20703;-86
2022/04/11 05:34:15;;;;;;;1.43;1.33;;;22.10;51.20;;;;;;6245747;23;20402;-78
2022/04/11 05:36:42;;;;;;;1.50;1.40;;;22.00;51.20;;;;;;6245446;23;20405;-80
2022/04/11 05:39:10;;;;;;;1.73;1.63;;;22.00;51.30;;;;;;6245341;23;20398;-78
2022/04/11 05:41:37;;;;;;;2.00;1.90;;;22.00;51.20;;;;;;6245592;23;20416;-77
2022/04/11 05:44:04;;;;;;;1.80;1.70;;;22.10;50.80;;;;;;6245310;23;20401;-77
2022/04/11 05:46:31;;;;;;;1.63;1.53;;;22.10;51.20;;;;;;6245546;23;20390;-84
2022/04/11 05:48:58;;;;;;;1.50;1.40;;;22.10;51.30;;;;;;6245304;23;20452;-78
2022/04/11 05:51:25;;;;;;;1.60;1.40;;;22.10;51.30;;;;;;6245626;23;20406;-78
2022/04/11 05:53:52;;;;;;;2.80;1.60;;;22.00;51.60;;;;;;6244362;23;20488;-79
2022/04/11 05:56:20;;;;;;;1.70;1.50;;;22.00;51.50;;;;;;6245430;23;20401;-78
2022/04/11 05:58:47;;;;;;;2.23;1.70;;;22.00;51.80;;;;;;6245466;22;20508;-82
2022/04/11 06:01:14;;;;;;;5.13;1.67;;;22.10;51.50;;;;;;6245553;23;20433;-79
2022/04/11 06:03:40;;;;;;;2.23;1.73;;;22.10;51.60;;;;;;6245481;23;20962;-79
2022/04/11 06:06:07;;;;;;;1.70;1.60;;;22.10;51.60;;;;;;6245491;23;20404;-83
2022/04/11 06:08:34;;;;;;;2.03;1.80;;;22.10;51.60;;;;;;6245403;23;20456;-83
2022/04/11 06:11:01;;;;;;;1.53;1.43;;;22.10;51.40;;;;;;6245740;23;20401;-84
2022/04/11 06:13:29;;;;;;;1.40;1.30;;;22.30;51.60;;;;;;6245473;23;20401;-83
2022/04/11 06:15:55;;;;;;;2.33;1.80;;;22.10;51.40;;;;;;6245459;23;20440;-83
2022/04/11 06:18:22;;;;;;;2.33;1.57;;;22.10;51.60;;;;;;6245738;23;20402;-78
2022/04/11 06:20:49;;;;;;;3.50;1.70;;;22.10;51.70;;;;;;6246013;23;20424;-78
2022/04/11 06:23:16;;;;;;;2.67;2.13;;;22.10;52.00;;;;;;6246170;23;20405;-82
2022/04/11 06:25:43;;;;;;;5.37;2.03;;;22.20;52.00;;;;;;6245830;23;20459;-79
2022/04/11 06:28:10;;;;;;;6.23;1.90;;;22.20;51.70;;;;;;6245658;22;20436;-86
2022/04/11 06:30:38;;;;;;;2.10;1.73;;;22.10;51.60;;;;;;6247575;23;20528;-87
2022/04/11 06:33:05;;;;;;;2.80;1.90;;;22.20;51.70;;;;;;6249213;23;20401;-81
2022/04/11 06:35:32;;;;;;;2.60;1.63;;;22.00;51.00;;;;;;6248512;23;20401;-86
2022/04/11 06:37:59;;;;;;;1.67;1.57;;;22.00;50.30;;;;;;6247423;23;20433;-86
2022/04/11 06:40:26;;;;;;;9.50;1.87;;;22.00;49.90;;;;;;6247545;23;20405;-86
2022/04/11 06:42:53;;;;;;;3.23;1.80;;;22.10;50.10;;;;;;6248023;23;20508;-88
2022/04/11 06:45:19;;;;;;;5.20;2.10;;;22.20;50.60;;;;;;6248343;23;20405;-78
2022/04/11 06:47:48;;;;;;;4.27;1.77;;;22.00;51.30;;;;;;6247921;23;20405;-80
2022/04/11 06:50:14;;;;;;;8.60;2.23;;;22.00;51.00;;;;;;6247535;23;20441;-80
2022/04/11 06:52:41;;;;;;;2.70;2.10;;;22.00;49.80;;;;;;6247891;23;20397;-89
2022/04/11 06:55:09;;;;;;;3.63;2.00;;;22.00;50.20;;;;;;6247749;23;20408;-78
2022/04/11 06:57:36;;;;;;;6.93;1.67;;;22.00;50.10;;;;;;6247062;23;20405;-79
2022/04/11 07:00:04;;;;;;;1.80;1.70;;;22.10;50.80;;;;;;6247860;23;20401;-78
2022/04/11 07:02:31;;;;;;;2.37;1.63;;;22.10;51.10;;;;;;6247791;23;20397;-79
2022/04/11 07:04:59;;;;;;;4.90;1.80;;;22.10;51.00;;;;;;6246435;23;20412;-79
2022/04/11 07:07:26;;;;;;;4.03;2.27;;;22.10;51.10;;;;;;6245497;23;20408;-87
2022/04/11 07:09:53;;;;;;;2.30;1.40;;;22.10;51.10;;;;;;6246079;23;20449;-82
2022/04/11 07:12:19;;;;;;;3.50;1.80;;;22.20;51.40;;;;;;6247470;23;20415;-79
2022/04/11 07:14:46;;;;;;;1.73;1.60;;;22.10;51.20;;;;;;6246571;23;20402;-79
2022/04/11 07:17:13;;;;;;;3.10;1.50;;;22.20;51.30;;;;;;6246567;23;20927;-78
2022/04/11 07:19:39;;;;;;;2.40;1.50;;;22.10;51.50;;;;;;6247544;23;20888;-79
2022/04/11 07:22:08;;;;;;;1.63;1.43;;;22.10;51.30;;;;;;6247516;23;20406;-79
2022/04/11 07:24:37;;;;;;;3.20;1.30;;;22.20;51.30;;;;;;6247853;23;20428;-79
2022/04/11 07:27:06;;;;;;;2.50;1.40;;;22.20;51.30;;;;;;6247638;23;20402;-79
2022/04/11 07:29:33;;;;;;;4.30;2.10;;;22.20;51.30;;;;;;6246964;22;20449;-87
2022/04/11 07:32:00;;;;;;;2.80;1.80;;;22.20;51.30;;;;;;6246451;23;20417;-79
2022/04/11 07:34:27;;;;;;;1.93;1.60;;;22.20;51.20;;;;;;6245877;23;20401;-80
2022/04/11 07:36:54;;;;;;;4.33;1.50;;;22.30;51.30;;;;;;6246232;23;20718;-87
2022/04/11 07:39:23;;;;;;;2.00;1.50;;;22.30;51.20;;;;;;6246466;23;20405;-87
2022/04/11 07:41:50;;;;;;;2.00;1.67;;;22.30;51.20;;;;;;6245534;23;20763;-79
2022/04/11 07:44:17;;;;;;;3.30;1.57;;;22.30;51.10;;;;;;6246270;23;20408;-80
2022/04/11 07:46:44;;;;;;;1.90;1.70;;;22.30;51.20;;;;;;6247454;23;20404;-79
2022/04/11 07:49:10;;;;;;;2.50;1.67;;;22.30;51.30;;;;;;6247465;23;20437;-79
2022/04/11 07:51:37;;;;;;;1.50;1.40;;;22.40;51.40;;;;;;6247122;23;20393;-80
2022/04/11 07:54:04;;;;;;;2.43;1.50;;;22.40;51.30;;;;;;6247491;23;20401;-79
2022/04/11 07:56:32;;;;;;;2.27;1.33;;;22.30;51.20;;;;;;6246952;23;20402;-79
2022/04/11 07:58:59;;;;;;;2.43;1.70;;;22.40;51.30;;;;;;6246999;22;20425;-79
2022/04/11 08:01:28;;;;;;;3.27;1.83;;;22.40;51.30;;;;;;6247047;23;20907;-83
2022/04/11 08:03:55;;;;;;;1.57;1.47;;;22.40;51.40;;;;;;6247561;23;20483;-83
2022/04/11 08:06:21;;;;;;;2.03;1.37;;;22.40;51.40;;;;;;6247444;23;20436;-88
2022/04/11 08:08:48;;;;;;;3.50;2.23;;;22.40;51.40;;;;;;6247387;23;20479;-79
2022/04/11 08:11:15;;;;;;;1.70;1.60;;;22.50;51.50;;;;;;6247230;23;20424;-79
2022/04/11 08:13:43;;;;;;;2.83;1.53;;;22.40;51.40;;;;;;6247427;23;20729;-87
2022/04/11 08:16:10;;;;;;;2.13;1.50;;;22.50;51.50;;;;;;6246808;23;20451;-79
2022/04/11 08:18:37;;;;;;;1.67;1.37;;;22.50;51.60;;;;;;6246478;23;20415;-79
2022/04/11 08:21:04;;;;;;;1.33;1.23;;;22.50;51.60;;;;;;6247029;23;20410;-79
2022/04/11 08:23:31;;;;;;;1.80;1.43;;;22.50;51.60;;;;;;6247224;23;20773;-89
2022/04/11 08:25:58;;;;;;;1.30;1.20;;;22.50;51.60;;;;;;6247190;23;20403;-80
2022/04/11 08:28:25;;;;;;;1.50;1.40;;;22.50;51.70;;;;;;6246985;22;20422;-85
2022/04/11 08:30:53;;;;;;;1.87;1.30;;;22.50;51.70;;;;;;6247414;23;20445;-88
2022/04/11 08:33:20;;;;;;;2.03;1.33;;;22.60;51.90;;;;;;6247293;23;20729;-80
2022/04/11 08:35:47;;;;;;;1.30;1.20;;;22.60;52.00;;;;;;6246970;23;20428;-80
2022/04/11 08:38:13;;;;;;;1.40;1.27;;;22.60;52.00;;;;;;6247101;23;20437;-79
2022/04/11 08:40:40;;;;;;;2.33;1.40;;;22.60;52.00;;;;;;6247169;23;20739;-79
2022/04/11 08:43:10;;;;;;;1.20;1.10;;;22.60;52.00;;;;;;6247130;23;20780;-80
2022/04/11 08:45:38;;;;;;;1.40;1.30;;;22.60;52.00;;;;;;6246984;23;20407;-79
2022/04/11 08:48:07;;;;;;;2.40;1.27;;;22.70;52.00;;;;;;6247075;23;20872;-80
2022/04/11 08:50:34;;;;;;;1.83;1.40;;;22.70;52.10;;;;;;6246742;23;20447;-79
2022/04/11 08:53:00;;;;;;;1.73;1.63;;;22.70;52.00;;;;;;6246813;23;20405;-79
2022/04/11 08:55:27;;;;;;;2.17;1.20;;;22.70;52.10;;;;;;6246950;23;20405;-80
2022/04/11 08:57:54;;;;;;;1.80;1.30;;;22.70;52.10;;;;;;6246468;22;20422;-88
2022/04/11 09:00:21;;;;;;;1.60;1.37;;;22.80;52.20;;;;;;6246418;23;20402;-88
2022/04/11 09:02:49;;;;;;;2.97;1.20;;;22.80;52.20;;;;;;6246868;23;20408;-87
2022/04/11 09:05:22;;;;;;;1.30;1.20;;;22.80;52.20;;;;;;6246937;23;20423;-88
2022/04/11 09:07:51;;;;;;;1.20;1.10;;;22.80;52.20;;;;;;6246951;23;20710;-80
2022/04/11 09:10:20;;;;;;;1.03;0.93;;;22.90;52.30;;;;;;6246582;23;20777;-87
2022/04/11 09:12:48;;;;;;;2.33;1.57;;;22.90;52.30;;;;;;6246281;23;20408;-79
2022/04/11 09:15:15;;;;;;;1.57;1.30;;;22.90;52.30;;;;;;6246423;23;20434;-79
2022/04/11 09:17:42;;;;;;;1.70;1.27;;;22.90;52.30;;;;;;6246602;23;20861;-79
2022/04/11 09:20:12;;;;;;;1.10;1.00;;;23.00;52.30;;;;;;6246621;23;20488;-79
2022/04/11 09:22:40;;;;;;;1.50;1.00;;;23.00;52.30;;;;;;6246314;23;20444;-79
2022/04/11 09:25:12;;;;;;;2.37;1.43;;;23.00;52.40;;;;;;6246545;23;20401;-79
2022/04/11 09:27:39;;;;;;;1.30;1.20;;;23.00;52.30;;;;;;6246736;22;20405;-88
2022/04/11 09:30:20;;;;;;;1.23;1.13;;;23.00;52.30;;;;;;6246552;23;20441;-79
2022/04/11 09:33:01;;;;;;;1.30;1.20;;;23.10;52.40;;;;;;6246666;23;20433;-79
2022/04/11 09:35:30;;;;;;;1.30;1.20;;;23.10;52.30;;;;;;6246728;23;20443;-79
2022/04/11 09:38:09;;;;;;;1.50;1.20;;;23.10;52.40;;;;;;6246467;23;20401;-79
2022/04/11 09:40:40;;;;;;;1.27;1.17;;;23.10;52.30;;;;;;6246609;23;20412;-79
2022/04/11 09:43:07;;;;;;;1.13;1.03;;;23.10;53.00;;;;;;6246586;23;20400;-85
2022/04/11 09:45:43;;;;;;;1.43;1.33;;;23.10;52.40;;;;;;6246295;23;20393;-79
2022/04/11 09:48:11;;;;;;;1.50;1.30;;;23.20;52.50;;;;;;6246092;23;20389;-88
2022/04/11 09:50:38;;;;;;;1.40;1.07;;;23.20;52.50;;;;;;6246418;23;20445;-87
2022/04/11 09:53:14;;;;;;;1.10;1.00;;;23.20;52.40;;;;;;6246428;23;20407;-79
2022/04/11 09:55:43;;;;;;;1.87;1.50;;;23.30;52.50;;;;;;6246499;23;20393;-86
2022/04/11 09:58:10;;;;;;;1.10;0.90;;;23.20;52.40;;;;;;6246493;22;20516;-80
2022/04/11 10:00:38;;;;;;;1.30;1.20;;;23.30;53.10;;;;;;6246599;23;20727;-79
2022/04/11 10:03:06;;;;;;;2.00;1.17;;;23.30;52.50;;;;;;6246381;23;20484;-80
2022/04/11 10:05:34;;;;;;;1.20;0.93;;;23.30;52.50;;;;;;6248791;23;20397;-80
2022/04/11 10:08:03;;;;;;;1.10;1.00;;;23.40;52.60;;;;;;6248934;23;20431;-94
2022/04/11 10:24:33;;;;;;;1.87;1.20;;;22.90;51.40;;;;;;5098335;27;1271611;-88
2022/04/11 10:27:15;;;;;;;1.00;0.90;;;24.10;50.70;;;;;;5111048;28;20197;-80
2022/04/11 10:29:42;;;;;;;1.03;0.93;;;24.10;50.90;;;;;;5110986;28;20446;-88
2022/04/11 10:32:11;;;;;;;1.20;1.10;;;23.90;50.90;;;;;;5110912;28;20439;-80
2022/04/11 10:34:53;;;;;;;1.20;0.90;;;23.90;51.00;;;;;;5110990;28;20439;-89
2022/04/11 10:37:21;;;;;;;1.00;0.90;;;23.90;51.00;;;;;;5110993;28;20443;-89
2022/04/11 10:39:50;;;;;;;1.43;1.10;;;23.90;51.00;;;;;;5110957;28;20440;-80
2022/04/11 10:42:22;;;;;;;1.30;1.10;;;23.90;51.00;;;;;;5110876;28;20543;-88
2022/04/11 10:44:50;;;;;;;1.47;1.20;;;24.00;51.10;;;;;;5110882;28;20497;-83
2022/04/11 10:47:30;;;;;;;1.20;1.03;;;23.90;51.10;;;;;;5110963;28;20435;-82
2022/04/11 10:50:25;;;;;;;1.00;0.90;;;24.00;51.10;;;;;;5103736;28;20460;-80
2022/04/11 10:52:55;;;;;;;1.73;1.10;;;24.00;51.10;;;;;;5090935;28;20441;-88
2022/04/11 10:55:25;;;;;;;1.10;1.00;;;24.00;51.20;;;;;;5092955;28;20451;-80
2022/04/11 10:57:54;;;;;;;1.50;0.87;;;24.10;51.20;;;;;;5094027;28;20522;-89
2022/04/11 11:00:23;;;;;;;1.30;1.13;;;24.10;51.20;;;;;;5093224;28;20455;-88
2022/04/11 11:03:13;;;;;;;1.40;1.10;;;24.10;51.10;;;;;;5090091;28;21032;-90
2022/04/11 11:05:43;;;;;;;1.10;0.90;;;24.20;51.10;;;;;;5089904;28;20793;-80
2022/04/11 11:08:37;;;;;;;1.10;0.90;;;24.20;51.10;;;;;;5090057;28;20463;-80
2022/04/11 11:11:21;;;;;;;1.60;0.90;;;24.20;51.00;;;;;;5042500;28;20455;-83
2022/04/11 11:13:49;;;;;;;1.00;0.80;;;24.30;51.10;;;;;;5089809;28;20444;-88
2022/04/11 11:16:28;;;;;;;1.43;1.00;;;24.30;51.10;;;;;;5089717;28;20443;-87
2022/04/11 11:19:15;;;;;;;1.40;1.00;;;24.30;51.00;;;;;;5089688;28;20440;-80
2022/04/11 11:22:03;;;;;;;1.60;1.10;;;24.40;51.00;;;;;;5089664;28;20468;-89
2022/04/11 11:24:30;;;;;;;1.00;0.90;;;24.40;51.00;;;;;;5080589;28;20464;-80
2022/04/11 11:27:02;;;;;;;1.10;1.00;;;24.30;51.00;;;;;;5076127;28;20437;-80
2022/04/11 11:29:31;;;;;;;1.10;1.00;;;24.40;51.00;;;;;;5076250;28;20441;-80
2022/04/11 11:31:59;;;;;;;1.17;1.00;;;24.40;51.00;;;;;;5076086;28;20444;-81
2022/04/11 11:34:27;;;;;;;1.10;1.00;;;24.40;51.00;;;;;;5075933;28;20919;-80
2022/04/11 11:36:58;;;;;;;1.30;0.97;;;24.40;51.00;;;;;;5075956;28;20433;-89
2022/04/11 11:39:26;;;;;;;1.20;0.80;;;24.50;51.00;;;;;;5075842;28;20915;-81
2022/04/11 11:41:56;;;;;;;1.40;0.87;;;24.50;51.00;;;;;;5075976;28;20465;-86
2022/04/11 11:44:24;;;;;;;1.07;0.97;;;24.50;51.00;;;;;;5075532;28;20478;-78
2022/04/11 11:46:52;;;;;;;1.00;0.80;;;24.50;51.00;;;;;;5075665;28;20444;-78
2022/04/11 11:49:20;;;;;;;1.10;1.00;;;24.50;50.90;;;;;;5075650;28;20463;-79
2022/04/11 11:51:47;;;;;;;1.20;1.00;;;24.50;50.90;;;;;;5075650;28;20441;-86
2022/04/11 11:54:14;;;;;;;1.00;0.83;;;24.50;50.90;;;;;;5075627;28;20490;-85
2022/04/11 11:56:44;;;;;;;1.10;0.80;;;24.50;50.90;;;;;;5075558;28;20449;-78
2022/04/11 11:59:12;;;;;;;1.60;1.00;;;24.50;50.90;;;;;;5075702;28;20439;-86
2022/04/11 12:01:40;;;;;;;1.53;0.80;;;24.50;50.90;;;;;;5075180;28;20434;-78
2022/04/11 12:04:18;;;;;;;1.20;1.00;;;24.50;50.90;;;;;;5075156;28;20495;-78
2022/04/11 12:06:45;;;;;;;1.23;1.00;;;24.60;51.00;;;;;;5075442;28;20436;-84
2022/04/11 12:09:12;;;;;;;1.00;0.80;;;24.60;50.90;;;;;;5075277;28;20440;-78
2022/04/11 12:11:39;;;;;;;1.23;0.80;;;24.40;50.80;;;;;;5075328;28;20433;-79
2022/04/11 12:14:07;;;;;;;1.30;0.90;;;24.60;50.90;;;;;;5075551;28;20444;-78
2022/04/11 12:16:35;;;;;;;1.47;0.80;;;24.50;50.80;;;;;;5075190;28;20494;-78
2022/04/11 12:19:05;;;;;;;1.33;1.00;;;24.60;50.90;;;;;;5075097;28;20452;-86
2022/04/11 12:21:33;;;;;;;1.20;0.90;;;24.60;50.90;;;;;;5075077;28;20543;-81
2022/04/11 12:24:01;;;;;;;1.00;0.90;;;24.60;51.00;;;;;;5074308;28;20484;-81
2022/04/11 12:26:30;;;;;;;1.07;0.87;;;24.50;50.90;;;;;;5075003;28;20444;-80
2022/04/11 12:28:57;;;;;;;1.00;0.90;;;24.50;50.90;;;;;;5075027;28;20448;-80
2022/04/11 12:31:24;;;;;;;1.20;1.10;;;24.50;51.00;;;;;;5074884;28;20437;-89
2022/04/11 12:33:52;;;;;;;1.33;1.23;;;24.50;51.00;;;;;;5074657;28;20437;-81
2022/04/11 12:36:22;;;;;;;1.30;0.83;;;24.50;51.00;;;;;;5073847;28;20471;-89
2022/04/11 12:38:51;;;;;;;1.00;0.90;;;24.50;50.90;;;;;;5074679;28;20445;-89
2022/04/11 12:41:36;;;;;;;1.03;0.90;;;24.50;51.00;;;;;;5074684;28;20436;-88
2022/04/11 12:44:11;;;;;;;1.00;0.90;;;24.50;51.00;;;;;;5075212;28;20546;-80
2022/04/11 12:46:41;;;;;;;1.00;0.87;;;24.50;51.00;;;;;;5074690;28;20767;-88
2022/04/11 12:49:09;;;;;;;1.07;0.83;;;24.50;51.10;;;;;;5074249;28;20437;-87
2022/04/11 12:51:39;;;;;;;1.20;0.90;;;24.50;51.10;;;;;;5074660;28;20441;-80
2022/04/11 12:54:09;;;;;;;1.07;0.97;;;24.50;51.10;;;;;;5074376;28;20469;-80
2022/04/11 12:56:37;;;;;;;1.10;1.00;;;24.50;51.10;;;;;;5074464;28;20456;-81
2022/04/11 12:59:04;;;;;;;1.30;0.80;;;24.50;51.70;;;;;;5074387;28;20935;-81
2022/04/11 13:01:57;;;;;;;1.10;0.90;;;24.50;51.10;;;;;;5074423;28;20448;-81
2022/04/11 13:04:25;;;;;;;1.00;0.77;;;24.50;51.10;;;;;;5074106;28;20485;-88
2022/04/11 13:06:53;;;;;;;0.90;0.80;;;24.40;51.10;;;;;;5074282;28;20441;-89